NCAR-RAP Real-Time Weather Data

Output produced by METARs form (10 April 2020  07:29 UTC)
found at http://weather.rap.ucar.edu/surface/
 
KTUL 100653Z 01014G23KT 10SM CLR 10/M03 A3016 RMK AO2 SLP209 T01001033
KTUL 100553Z 01012G21KT 10SM CLR 11/M01 A3013 RMK AO2 SLP201 T01111011 10172 20089 402110089 53024
KTUL 100453Z 34006KT 10SM CLR 10/01 A3010 RMK AO2 SLP190 T01000006
KTUL 100353Z 36005KT 10SM SCT250 12/01 A3009 RMK AO2 SLP185 T01220006
KTUL 100253Z 34004KT 10SM BKN250 12/03 A3006 RMK AO2 SLP178 T01220033 53013
KTUL 100153Z 35005KT 10SM OVC250 14/01 A3004 RMK AO2 SLP169 T01390011
KTUL 100053Z 03005KT 8SM CLR 16/M01 A3001 RMK AO2 SLP161 T01611011
KTUL 092353Z 03007G17KT 9SM OVC250 17/M01 A3002 RMK AO2 SLP163 T01721006 10211 20172 53001
KTUL 092253Z 02011G18KT 10SM OVC250 18/00 A3002 RMK AO2 SLP162 T01830000
KTUL 092153Z 03010G21KT 10SM CLR 19/00 A3001 RMK AO2 SLP158 T01940000
KTUL 092053Z 05010G15KT 10SM OVC250 21/01 A3002 RMK AO2 WSHFT 1948 SLP162 T02060011 58022
KTUL 092008Z 36010G18KT 10SM FEW100 BKN250 21/02 A3004 RMK AO2 WSHFT 1948 T02060017
KTUL 091953Z 35014G25KT 10SM FEW100 BKN250 20/00 A3005 RMK AO2 SLP170 T02000000
KTUL 091853Z 04010G16KT 10SM FEW100 BKN250 19/01 A3007 RMK AO2 SLP178 T01940006
KTUL 091753Z 03009G17KT 10SM BKN250 19/01 A3009 RMK AO2 SLP183 T01940011 10200 20122 50008
KTUL 091653Z 04010KT 10SM BKN250 19/02 A3009 RMK AO2 SLP184 T01890022
KTUL 091553Z 04010KT 10SM BKN250 17/03 A3008 RMK AO2 SLP182 T01720033
KTUL 091453Z 04011KT 10SM BKN250 16/04 A3006 RMK AO2 SLP175 T01560039 51019
KTUL 091353Z 05009G18KT 10SM BKN250 14/03 A3005 RMK AO2 SLP172 T01390033
KTUL 091253Z 04009KT 10SM BKN250 13/03 A3004 RMK AO2 SLP166 T01280033
KTUL 091153Z 03011KT 10SM SCT250 13/03 A3001 RMK AO2 SLP155 T01280033 10194 20128 53013
KTUL 091053Z 03009G20KT 10SM SCT250 13/04 A2998 RMK AO2 SLP145 T01330044
KTUL 090953Z 03010G16KT 10SM SCT250 14/07 A2998 RMK AO2 SLP144 T01440067
KTUL 090853Z 02010KT 10SM SCT250 15/08 A2997 RMK AO2 SLP141 T01500078 53019